EmailTwitter


Observations de surface / Canada / CYYZ (71624)

Régions: Québec | Canada | États-Unis | Europe | France | UK | Ailleurs
Station
Affichage
Infos & localisation pour CYYZ (71624) | Aide pour décoder les METARs

Observations prises le 2020-02-27 à 14H00 UTC à TORONTO A, ON (CYYZ)

Etat du ciel: couvert.

Obstacle(s) à la visibilité: faible neige et poudrerie basse.

Température: -4.0 Celsius

Point de rosée: -8.0 Celsius

Humidité relative: 74%

Facteur vent: -12.

Facteur vent (rafales): -14.

Vents: Ouest à 33 km/h ou 18 noeuds.

Rafale du vent: 57 km/h ou 31 noeuds.

Pression au niveau moyen de la mer: 100.09 kilopascals.

Calage altimétrique: 100.00 kilopascals ou 29.53 pouces de mercure.

Visibilité horizontale: 12.00 milles terrestres ou 19.20 kilomètres.

Hauteur du plafond: 762 mètres ( 2500 pieds ).

Observation METAR:

CYYZ 271400Z 28018G31KT 12SM -SN DRSN BKN025 OVC060 M04/M08 A2953 RMK SF6SC2

INTMT BLSN SLP009=